New Deal, Texas
Current Conditions -  °F | °C
As of 4:53 PM on Thursday 23 Oct 2014 (Local Time) from KLBB Reporting Station
Few Clouds Few Clouds  
Wind Chill: 76°   Ceiling: Unl
Heat Index: 76°   Visibility: 10mi
Dew Point: 59°   Wind: 10mph
Humidity: 56%   Direction: 180°S
Pressure: 30.08"   Gusts: NA
Location:  33.74°N, 101.84°W
Report Text: KLBB 232153Z 18009KT 10SM FEW100 24/15 A3008 RMK AO2 SLP149 T02440150
Loading
Personal Weather Stations






























Interactive Weather Map
Tropical Storm Tracking
New forecast layout! Learn more

10-Day Weather Forecast

Advertisements
Track Severe Weather on mobile